sensor_id;sensor_type;location;lat;lon;timestamp;P1;durP1;ratioP1;P2;durP2;ratioP2
18806;SDS011;9531;52.030;4.380;2023-02-08T00:02:19;18.70;;;10.67;;
18806;SDS011;9531;52.030;4.380;2023-02-08T00:04:46;19.10;;;11.40;;
18806;SDS011;9531;52.030;4.380;2023-02-08T00:07:13;23.17;;;12.37;;
18806;SDS011;9531;52.030;4.380;2023-02-08T00:09:42;22.80;;;12.77;;
18806;SDS011;9531;52.030;4.380;2023-02-08T00:12:16;22.20;;;11.60;;
18806;SDS011;9531;52.030;4.380;2023-02-08T00:14:45;20.70;;;11.37;;
18806;SDS011;9531;52.030;4.380;2023-02-08T00:17:12;24.60;;;11.53;;
18806;SDS011;9531;52.030;4.380;2023-02-08T00:19:39;22.20;;;11.07;;
18806;SDS011;9531;52.030;4.380;2023-02-08T00:22:07;21.97;;;11.67;;
18806;SDS011;9531;52.030;4.380;2023-02-08T00:24:34;20.23;;;11.37;;
18806;SDS011;9531;52.030;4.380;2023-02-08T00:27:03;21.00;;;11.17;;
18806;SDS011;9531;52.030;4.380;2023-02-08T00:29:30;20.57;;;11.23;;
18806;SDS011;9531;52.030;4.380;2023-02-08T00:31:57;20.97;;;11.27;;
18806;SDS011;9531;52.030;4.380;2023-02-08T00:34:25;20.70;;;11.33;;
18806;SDS011;9531;52.030;4.380;2023-02-08T00:36:53;21.57;;;11.80;;
18806;SDS011;9531;52.030;4.380;2023-02-08T00:39:20;20.37;;;10.83;;
18806;SDS011;9531;52.030;4.380;2023-02-08T00:41:48;21.30;;;11.20;;
18806;SDS011;9531;52.030;4.380;2023-02-08T00:44:17;23.67;;;11.10;;
18806;SDS011;9531;52.030;4.380;2023-02-08T00:46:44;23.37;;;11.90;;
18806;SDS011;9531;52.030;4.380;2023-02-08T00:49:12;20.73;;;10.77;;
18806;SDS011;9531;52.030;4.380;2023-02-08T00:51:40;19.23;;;10.53;;
18806;SDS011;9531;52.030;4.380;2023-02-08T00:54:10;22.97;;;11.43;;
18806;SDS011;9531;52.030;4.380;2023-02-08T00:56:45;17.73;;;10.53;;
18806;SDS011;9531;52.030;4.380;2023-02-08T00:59:13;22.97;;;11.13;;
18806;SDS011;9531;52.030;4.380;2023-02-08T01:01:43;20.50;;;10.10;;
18806;SDS011;9531;52.030;4.380;2023-02-08T01:04:10;18.27;;;10.43;;
18806;SDS011;9531;52.030;4.380;2023-02-08T01:06:37;20.83;;;11.43;;
18806;SDS011;9531;52.030;4.380;2023-02-08T01:09:06;20.27;;;11.23;;
18806;SDS011;9531;52.030;4.380;2023-02-08T01:11:41;19.80;;;10.20;;
18806;SDS011;9531;52.030;4.380;2023-02-08T01:14:09;19.83;;;10.27;;
18806;SDS011;9531;52.030;4.380;2023-02-08T01:16:37;19.03;;;10.53;;
18806;SDS011;9531;52.030;4.380;2023-02-08T01:19:06;26.30;;;11.63;;
18806;SDS011;9531;52.030;4.380;2023-02-08T01:21:34;21.60;;;10.53;;
18806;SDS011;9531;52.030;4.380;2023-02-08T01:24:03;19.17;;;10.73;;
18806;SDS011;9531;52.030;4.380;2023-02-08T01:26:30;20.93;;;10.93;;
18806;SDS011;9531;52.030;4.380;2023-02-08T01:29:00;20.80;;;11.30;;
18806;SDS011;9531;52.030;4.380;2023-02-08T01:31:30;22.93;;;10.83;;
18806;SDS011;9531;52.030;4.380;2023-02-08T01:33:58;22.80;;;11.03;;
18806;SDS011;9531;52.030;4.380;2023-02-08T01:36:29;25.50;;;11.80;;
18806;SDS011;9531;52.030;4.380;2023-02-08T01:38:57;22.47;;;11.13;;
18806;SDS011;9531;52.030;4.380;2023-02-08T01:41:26;18.43;;;10.37;;
18806;SDS011;9531;52.030;4.380;2023-02-08T01:44:05;18.90;;;10.77;;
18806;SDS011;9531;52.030;4.380;2023-02-08T01:46:34;23.13;;;11.10;;
18806;SDS011;9531;52.030;4.380;2023-02-08T01:49:04;22.10;;;10.97;;
18806;SDS011;9531;52.030;4.380;2023-02-08T01:51:39;21.67;;;10.73;;
18806;SDS011;9531;52.030;4.380;2023-02-08T01:54:10;21.60;;;11.03;;
18806;SDS011;9531;52.030;4.380;2023-02-08T01:56:52;22.07;;;11.80;;
18806;SDS011;9531;52.030;4.380;2023-02-08T01:59:20;20.07;;;11.20;;
18806;SDS011;9531;52.030;4.380;2023-02-08T02:01:51;21.83;;;10.60;;
18806;SDS011;9531;52.030;4.380;2023-02-08T02:04:20;20.70;;;11.23;;
18806;SDS011;9531;52.030;4.380;2023-02-08T02:06:50;20.70;;;11.33;;
18806;SDS011;9531;52.030;4.380;2023-02-08T02:09:23;22.97;;;10.60;;
18806;SDS011;9531;52.030;4.380;2023-02-08T02:11:58;23.70;;;11.13;;
18806;SDS011;9531;52.030;4.380;2023-02-08T02:14:25;23.70;;;11.40;;
18806;SDS011;9531;52.030;4.380;2023-02-08T02:16:53;20.13;;;11.33;;
18806;SDS011;9531;52.030;4.380;2023-02-08T02:19:22;21.17;;;11.03;;
18806;SDS011;9531;52.030;4.380;2023-02-08T02:22:01;23.97;;;12.17;;
18806;SDS011;9531;52.030;4.380;2023-02-08T02:24:41;19.43;;;10.67;;
18806;SDS011;9531;52.030;4.380;2023-02-08T02:27:39;23.30;;;11.03;;
18806;SDS011;9531;52.030;4.380;2023-02-08T02:30:35;21.90;;;10.80;;
18806;SDS011;9531;52.030;4.380;2023-02-08T02:33:32;23.40;;;10.47;;
18806;SDS011;9531;52.030;4.380;2023-02-08T02:36:08;23.03;;;11.93;;
18806;SDS011;9531;52.030;4.380;2023-02-08T02:38:48;23.33;;;10.93;;
18806;SDS011;9531;52.030;4.380;2023-02-08T02:41:30;19.57;;;10.13;;
18806;SDS011;9531;52.030;4.380;2023-02-08T02:44:22;21.93;;;11.43;;
18806;SDS011;9531;52.030;4.380;2023-02-08T02:46:57;20.03;;;10.50;;
18806;SDS011;9531;52.030;4.380;2023-02-08T02:49:31;22.03;;;11.20;;
18806;SDS011;9531;52.030;4.380;2023-02-08T02:52:05;21.63;;;10.10;;
18806;SDS011;9531;52.030;4.380;2023-02-08T02:54:41;21.50;;;10.67;;
18806;SDS011;9531;52.030;4.380;2023-02-08T02:57:13;21.50;;;11.20;;
18806;SDS011;9531;52.030;4.380;2023-02-08T03:02:17;19.80;;;10.40;;
18806;SDS011;9531;52.030;4.380;2023-02-08T03:04:52;21.97;;;10.97;;
18806;SDS011;9531;52.030;4.380;2023-02-08T03:07:35;20.50;;;10.73;;
18806;SDS011;9531;52.030;4.380;2023-02-08T03:10:32;19.33;;;9.87;;
18806;SDS011;9531;52.030;4.380;2023-02-08T03:13:18;21.23;;;10.47;;
18806;SDS011;9531;52.030;4.380;2023-02-08T03:15:55;21.97;;;11.10;;
18806;SDS011;9531;52.030;4.380;2023-02-08T03:18:32;19.80;;;10.03;;
18806;SDS011;9531;52.030;4.380;2023-02-08T03:21:07;18.67;;;10.80;;
18806;SDS011;9531;52.030;4.380;2023-02-08T03:23:40;22.17;;;11.07;;
18806;SDS011;9531;52.030;4.380;2023-02-08T03:26:18;20.77;;;10.23;;
18806;SDS011;9531;52.030;4.380;2023-02-08T03:28:55;23.13;;;10.57;;
18806;SDS011;9531;52.030;4.380;2023-02-08T03:31:36;19.80;;;10.07;;
18806;SDS011;9531;52.030;4.380;2023-02-08T03:34:08;19.93;;;10.07;;
18806;SDS011;9531;52.030;4.380;2023-02-08T03:36:43;18.23;;;10.73;;
18806;SDS011;9531;52.030;4.380;2023-02-08T03:39:19;22.43;;;10.93;;
18806;SDS011;9531;52.030;4.380;2023-02-08T03:41:52;23.23;;;11.00;;
18806;SDS011;9531;52.030;4.380;2023-02-08T03:44:25;16.80;;;9.57;;
18806;SDS011;9531;52.030;4.380;2023-02-08T03:46:57;22.83;;;11.00;;
18806;SDS011;9531;52.030;4.380;2023-02-08T03:49:29;23.30;;;11.00;;
18806;SDS011;9531;52.030;4.380;2023-02-08T03:52:02;21.83;;;11.37;;
18806;SDS011;9531;52.030;4.380;2023-02-08T03:54:34;19.10;;;9.97;;
18806;SDS011;9531;52.030;4.380;2023-02-08T03:57:09;19.67;;;9.67;;
18806;SDS011;9531;52.030;4.380;2023-02-08T03:59:42;19.73;;;10.03;;
18806;SDS011;9531;52.030;4.380;2023-02-08T04:02:13;21.97;;;10.17;;
18806;SDS011;9531;52.030;4.380;2023-02-08T04:04:45;23.27;;;11.10;;
18806;SDS011;9531;52.030;4.380;2023-02-08T04:07:16;18.73;;;10.27;;
18806;SDS011;9531;52.030;4.380;2023-02-08T04:09:44;20.70;;;10.70;;
18806;SDS011;9531;52.030;4.380;2023-02-08T04:12:13;18.47;;;10.00;;
18806;SDS011;9531;52.030;4.380;2023-02-08T04:14:50;22.17;;;10.57;;
18806;SDS011;9531;52.030;4.380;2023-02-08T04:17:17;20.13;;;9.93;;
18806;SDS011;9531;52.030;4.380;2023-02-08T04:19:51;19.30;;;10.10;;
18806;SDS011;9531;52.030;4.380;2023-02-08T04:22:21;19.50;;;9.77;;
18806;SDS011;9531;52.030;4.380;2023-02-08T04:24:48;19.93;;;10.30;;
18806;SDS011;9531;52.030;4.380;2023-02-08T04:27:22;21.30;;;10.93;;
18806;SDS011;9531;52.030;4.380;2023-02-08T04:29:49;20.83;;;10.43;;
18806;SDS011;9531;52.030;4.380;2023-02-08T04:32:16;20.10;;;10.43;;
18806;SDS011;9531;52.030;4.380;2023-02-08T04:37:23;20.40;;;9.93;;
18806;SDS011;9531;52.030;4.380;2023-02-08T04:39:52;17.37;;;9.67;;
18806;SDS011;9531;52.030;4.380;2023-02-08T04:42:19;19.97;;;11.00;;
18806;SDS011;9531;52.030;4.380;2023-02-08T04:44:46;18.90;;;10.00;;
18806;SDS011;9531;52.030;4.380;2023-02-08T04:47:14;19.60;;;10.10;;
18806;SDS011;9531;52.030;4.380;2023-02-08T04:49:48;22.83;;;10.93;;
18806;SDS011;9531;52.030;4.380;2023-02-08T04:52:16;16.57;;;9.80;;
18806;SDS011;9531;52.030;4.380;2023-02-08T04:54:44;17.40;;;9.63;;
18806;SDS011;9531;52.030;4.380;2023-02-08T04:57:13;20.10;;;10.70;;
18806;SDS011;9531;52.030;4.380;2023-02-08T04:59:40;20.00;;;10.63;;
18806;SDS011;9531;52.030;4.380;2023-02-08T05:02:07;21.37;;;10.77;;
18806;SDS011;9531;52.030;4.380;2023-02-08T05:04:34;21.10;;;10.77;;
18806;SDS011;9531;52.030;4.380;2023-02-08T05:07:01;19.67;;;10.27;;
18806;SDS011;9531;52.030;4.380;2023-02-08T05:09:28;20.03;;;11.10;;
18806;SDS011;9531;52.030;4.380;2023-02-08T05:14:41;22.83;;;11.40;;
18806;SDS011;9531;52.030;4.380;2023-02-08T05:17:14;23.57;;;12.57;;
18806;SDS011;9531;52.030;4.380;2023-02-08T05:19:42;20.07;;;10.97;;
18806;SDS011;9531;52.030;4.380;2023-02-08T05:22:09;26.37;;;11.77;;
18806;SDS011;9531;52.030;4.380;2023-02-08T05:24:36;25.17;;;13.07;;
18806;SDS011;9531;52.030;4.380;2023-02-08T05:27:03;21.87;;;11.97;;
18806;SDS011;9531;52.030;4.380;2023-02-08T05:29:32;20.30;;;11.20;;
18806;SDS011;9531;52.030;4.380;2023-02-08T05:31:59;19.07;;;10.83;;
18806;SDS011;9531;52.030;4.380;2023-02-08T05:34:28;22.13;;;12.17;;
18806;SDS011;9531;52.030;4.380;2023-02-08T05:36:55;21.73;;;11.40;;
18806;SDS011;9531;52.030;4.380;2023-02-08T05:39:24;22.80;;;11.67;;
18806;SDS011;9531;52.030;4.380;2023-02-08T05:41:51;21.10;;;11.50;;
18806;SDS011;9531;52.030;4.380;2023-02-08T05:44:19;20.33;;;11.33;;
18806;SDS011;9531;52.030;4.380;2023-02-08T05:46:49;19.33;;;11.30;;
18806;SDS011;9531;52.030;4.380;2023-02-08T05:49:16;20.60;;;10.30;;
18806;SDS011;9531;52.030;4.380;2023-02-08T05:51:43;22.27;;;11.30;;
18806;SDS011;9531;52.030;4.380;2023-02-08T05:54:10;22.67;;;12.50;;
18806;SDS011;9531;52.030;4.380;2023-02-08T05:56:38;23.13;;;11.97;;
18806;SDS011;9531;52.030;4.380;2023-02-08T05:59:05;20.80;;;10.60;;
18806;SDS011;9531;52.030;4.380;2023-02-08T06:01:32;22.07;;;11.87;;
18806;SDS011;9531;52.030;4.380;2023-02-08T06:04:01;22.20;;;12.33;;
18806;SDS011;9531;52.030;4.380;2023-02-08T06:06:28;21.90;;;11.23;;
18806;SDS011;9531;52.030;4.380;2023-02-08T06:09:02;19.97;;;10.40;;
18806;SDS011;9531;52.030;4.380;2023-02-08T06:11:30;22.30;;;11.97;;
18806;SDS011;9531;52.030;4.380;2023-02-08T06:13:58;23.23;;;12.10;;
18806;SDS011;9531;52.030;4.380;2023-02-08T06:16:25;20.07;;;11.07;;
18806;SDS011;9531;52.030;4.380;2023-02-08T06:18:52;22.00;;;11.43;;
18806;SDS011;9531;52.030;4.380;2023-02-08T06:21:21;21.67;;;11.50;;
18806;SDS011;9531;52.030;4.380;2023-02-08T06:23:49;22.23;;;11.30;;
18806;SDS011;9531;52.030;4.380;2023-02-08T06:26:17;21.13;;;11.10;;
18806;SDS011;9531;52.030;4.380;2023-02-08T06:28:44;17.93;;;10.60;;
18806;SDS011;9531;52.030;4.380;2023-02-08T06:31:13;20.30;;;11.60;;
18806;SDS011;9531;52.030;4.380;2023-02-08T06:33:40;17.97;;;10.50;;
18806;SDS011;9531;52.030;4.380;2023-02-08T06:36:07;21.73;;;11.63;;
18806;SDS011;9531;52.030;4.380;2023-02-08T06:38:36;20.27;;;11.23;;
18806;SDS011;9531;52.030;4.380;2023-02-08T06:41:03;21.30;;;11.33;;
18806;SDS011;9531;52.030;4.380;2023-02-08T06:43:30;21.43;;;11.57;;
18806;SDS011;9531;52.030;4.380;2023-02-08T06:45:57;24.33;;;12.03;;
18806;SDS011;9531;52.030;4.380;2023-02-08T06:48:30;20.53;;;11.53;;
18806;SDS011;9531;52.030;4.380;2023-02-08T06:50:58;21.57;;;10.60;;
18806;SDS011;9531;52.030;4.380;2023-02-08T06:53:27;23.30;;;12.07;;
18806;SDS011;9531;52.030;4.380;2023-02-08T06:58:28;22.10;;;11.07;;
18806;SDS011;9531;52.030;4.380;2023-02-08T07:00:56;17.70;;;10.67;;
18806;SDS011;9531;52.030;4.380;2023-02-08T07:03:23;25.03;;;12.30;;
18806;SDS011;9531;52.030;4.380;2023-02-08T07:05:50;22.13;;;11.33;;
18806;SDS011;9531;52.030;4.380;2023-02-08T07:08:17;25.33;;;12.30;;
18806;SDS011;9531;52.030;4.380;2023-02-08T07:10:45;20.90;;;11.90;;
18806;SDS011;9531;52.030;4.380;2023-02-08T07:13:14;24.37;;;11.40;;
18806;SDS011;9531;52.030;4.380;2023-02-08T07:15:48;20.30;;;11.60;;
18806;SDS011;9531;52.030;4.380;2023-02-08T07:18:15;19.53;;;11.07;;
18806;SDS011;9531;52.030;4.380;2023-02-08T07:20:43;23.73;;;11.87;;
18806;SDS011;9531;52.030;4.380;2023-02-08T07:23:10;22.17;;;12.17;;
18806;SDS011;9531;52.030;4.380;2023-02-08T07:25:39;20.03;;;11.50;;
18806;SDS011;9531;52.030;4.380;2023-02-08T07:28:08;23.97;;;11.80;;
18806;SDS011;9531;52.030;4.380;2023-02-08T07:30:36;20.77;;;10.87;;
18806;SDS011;9531;52.030;4.380;2023-02-08T07:33:03;18.03;;;10.83;;
18806;SDS011;9531;52.030;4.380;2023-02-08T07:35:30;21.93;;;11.57;;
18806;SDS011;9531;52.030;4.380;2023-02-08T07:37:57;23.57;;;11.13;;
18806;SDS011;9531;52.030;4.380;2023-02-08T07:40:25;19.50;;;10.90;;
18806;SDS011;9531;52.030;4.380;2023-02-08T07:42:52;23.63;;;11.83;;
18806;SDS011;9531;52.030;4.380;2023-02-08T07:45:22;20.53;;;11.77;;
18806;SDS011;9531;52.030;4.380;2023-02-08T07:47:51;22.47;;;10.63;;
18806;SDS011;9531;52.030;4.380;2023-02-08T07:50:18;23.33;;;11.50;;
18806;SDS011;9531;52.030;4.380;2023-02-08T07:52:48;20.73;;;10.80;;
18806;SDS011;9531;52.030;4.380;2023-02-08T07:55:17;25.47;;;11.97;;
18806;SDS011;9531;52.030;4.380;2023-02-08T07:57:44;24.43;;;12.67;;
18806;SDS011;9531;52.030;4.380;2023-02-08T08:00:21;23.87;;;12.20;;
18806;SDS011;9531;52.030;4.380;2023-02-08T08:02:48;26.73;;;12.53;;
18806;SDS011;9531;52.030;4.380;2023-02-08T08:05:18;26.50;;;14.13;;
18806;SDS011;9531;52.030;4.380;2023-02-08T08:07:46;158.97;;;17.17;;
18806;SDS011;9531;52.030;4.380;2023-02-08T08:10:25;289.60;;;20.90;;
18806;SDS011;9531;52.030;4.380;2023-02-08T08:12:53;189.30;;;18.37;;
18806;SDS011;9531;52.030;4.380;2023-02-08T08:15:20;29.13;;;15.33;;
18806;SDS011;9531;52.030;4.380;2023-02-08T08:17:47;99.83;;;17.40;;
18806;SDS011;9531;52.030;4.380;2023-02-08T08:20:17;26.97;;;14.90;;
18806;SDS011;9531;52.030;4.380;2023-02-08T08:22:46;30.70;;;16.87;;
18806;SDS011;9531;52.030;4.380;2023-02-08T08:25:13;32.57;;;16.57;;
18806;SDS011;9531;52.030;4.380;2023-02-08T08:27:42;30.93;;;16.20;;
18806;SDS011;9531;52.030;4.380;2023-02-08T08:30:11;28.27;;;16.37;;
18806;SDS011;9531;52.030;4.380;2023-02-08T08:32:42;25.73;;;14.53;;
18806;SDS011;9531;52.030;4.380;2023-02-08T08:35:09;26.37;;;15.70;;
18806;SDS011;9531;52.030;4.380;2023-02-08T08:37:38;30.30;;;14.87;;
18806;SDS011;9531;52.030;4.380;2023-02-08T08:40:06;28.07;;;14.73;;
18806;SDS011;9531;52.030;4.380;2023-02-08T08:42:35;26.50;;;13.73;;
18806;SDS011;9531;52.030;4.380;2023-02-08T08:45:04;20.55;;;13.13;;
18806;SDS011;9531;52.030;4.380;2023-02-08T08:47:35;18.85;;;12.32;;
18806;SDS011;9531;52.030;4.380;2023-02-08T08:50:03;22.77;;;13.77;;
18806;SDS011;9531;52.030;4.380;2023-02-08T08:52:31;20.70;;;12.27;;
18806;SDS011;9531;52.030;4.380;2023-02-08T08:55:00;24.88;;;11.85;;
18806;SDS011;9531;52.030;4.380;2023-02-08T08:57:27;24.73;;;14.13;;
18806;SDS011;9531;52.030;4.380;2023-02-08T08:59:54;23.95;;;14.18;;
18806;SDS011;9531;52.030;4.380;2023-02-08T09:02:23;16.13;;;10.60;;
18806;SDS011;9531;52.030;4.380;2023-02-08T09:04:50;26.00;;;14.30;;
18806;SDS011;9531;52.030;4.380;2023-02-08T09:07:17;18.93;;;12.80;;
18806;SDS011;9531;52.030;4.380;2023-02-08T09:09:44;24.37;;;14.80;;
18806;SDS011;9531;52.030;4.380;2023-02-08T09:12:13;22.10;;;11.77;;
18806;SDS011;9531;52.030;4.380;2023-02-08T09:14:41;22.67;;;14.97;;
18806;SDS011;9531;52.030;4.380;2023-02-08T09:17:09;25.60;;;15.27;;
18806;SDS011;9531;52.030;4.380;2023-02-08T09:19:36;24.43;;;15.00;;
18806;SDS011;9531;52.030;4.380;2023-02-08T09:22:04;26.53;;;15.07;;
18806;SDS011;9531;52.030;4.380;2023-02-08T09:24:31;21.50;;;13.90;;
18806;SDS011;9531;52.030;4.380;2023-02-08T09:26:58;27.07;;;15.03;;
18806;SDS011;9531;52.030;4.380;2023-02-08T09:29:27;25.57;;;14.47;;
18806;SDS011;9531;52.030;4.380;2023-02-08T09:31:54;29.90;;;16.47;;
18806;SDS011;9531;52.030;4.380;2023-02-08T09:34:21;27.00;;;16.40;;
18806;SDS011;9531;52.030;4.380;2023-02-08T09:36:48;29.33;;;16.40;;
18806;SDS011;9531;52.030;4.380;2023-02-08T09:39:16;29.60;;;17.30;;
18806;SDS011;9531;52.030;4.380;2023-02-08T09:41:52;33.30;;;16.80;;
18806;SDS011;9531;52.030;4.380;2023-02-08T09:44:34;27.63;;;17.13;;
18806;SDS011;9531;52.030;4.380;2023-02-08T09:47:12;29.63;;;17.03;;
18806;SDS011;9531;52.030;4.380;2023-02-08T09:49:45;29.73;;;15.70;;
18806;SDS011;9531;52.030;4.380;2023-02-08T09:52:22;30.90;;;16.67;;
18806;SDS011;9531;52.030;4.380;2023-02-08T09:54:55;24.57;;;15.17;;
18806;SDS011;9531;52.030;4.380;2023-02-08T09:57:28;31.93;;;16.10;;
18806;SDS011;9531;52.030;4.380;2023-02-08T10:00:02;29.33;;;15.70;;
18806;SDS011;9531;52.030;4.380;2023-02-08T10:02:35;26.90;;;16.27;;
18806;SDS011;9531;52.030;4.380;2023-02-08T10:05:03;32.17;;;17.97;;
18806;SDS011;9531;52.030;4.380;2023-02-08T10:07:32;33.30;;;18.47;;
18806;SDS011;9531;52.030;4.380;2023-02-08T10:10:01;28.47;;;17.80;;
18806;SDS011;9531;52.030;4.380;2023-02-08T10:12:34;33.93;;;19.60;;
18806;SDS011;9531;52.030;4.380;2023-02-08T10:15:15;38.60;;;19.57;;
18806;SDS011;9531;52.030;4.380;2023-02-08T10:17:53;31.30;;;16.83;;
18806;SDS011;9531;52.030;4.380;2023-02-08T10:21:02;30.30;;;16.92;;
18806;SDS011;9531;52.030;4.380;2023-02-08T10:23:53;29.58;;;15.05;;
18806;SDS011;9531;52.030;4.380;2023-02-08T10:26:40;24.98;;;14.07;;
18806;SDS011;9531;52.030;4.380;2023-02-08T10:29:20;23.42;;;14.35;;
18806;SDS011;9531;52.030;4.380;2023-02-08T10:32:03;24.50;;;15.18;;
18806;SDS011;9531;52.030;4.380;2023-02-08T10:34:42;20.88;;;12.15;;
18806;SDS011;9531;52.030;4.380;2023-02-08T10:37:14;20.08;;;13.57;;
18806;SDS011;9531;52.030;4.380;2023-02-08T10:39:44;20.60;;;13.05;;
18806;SDS011;9531;52.030;4.380;2023-02-08T10:42:13;23.60;;;13.45;;
18806;SDS011;9531;52.030;4.380;2023-02-08T10:44:48;19.50;;;12.48;;
18806;SDS011;9531;52.030;4.380;2023-02-08T10:47:31;23.65;;;14.07;;
18806;SDS011;9531;52.030;4.380;2023-02-08T10:50:06;19.48;;;12.80;;
18806;SDS011;9531;52.030;4.380;2023-02-08T10:52:40;17.75;;;11.70;;
18806;SDS011;9531;52.030;4.380;2023-02-08T10:55:12;21.63;;;13.02;;
18806;SDS011;9531;52.030;4.380;2023-02-08T10:57:41;19.15;;;12.38;;
18806;SDS011;9531;52.030;4.380;2023-02-08T11:00:10;17.75;;;11.77;;
18806;SDS011;9531;52.030;4.380;2023-02-08T11:02:44;22.42;;;13.30;;
18806;SDS011;9531;52.030;4.380;2023-02-08T11:05:14;17.30;;;12.02;;
18806;SDS011;9531;52.030;4.380;2023-02-08T11:07:43;19.20;;;12.20;;
18806;SDS011;9531;52.030;4.380;2023-02-08T11:10:14;20.67;;;11.38;;
18806;SDS011;9531;52.030;4.380;2023-02-08T11:12:54;17.08;;;10.82;;
18806;SDS011;9531;52.030;4.380;2023-02-08T11:15:24;15.18;;;9.70;;
18806;SDS011;9531;52.030;4.380;2023-02-08T11:17:58;12.95;;;10.20;;
18806;SDS011;9531;52.030;4.380;2023-02-08T11:20:29;13.85;;;9.55;;
18806;SDS011;9531;52.030;4.380;2023-02-08T11:23:01;15.98;;;9.68;;
18806;SDS011;9531;52.030;4.380;2023-02-08T11:25:31;15.80;;;9.85;;
18806;SDS011;9531;52.030;4.380;2023-02-08T11:28:00;13.77;;;9.15;;
18806;SDS011;9531;52.030;4.380;2023-02-08T11:30:28;12.68;;;9.32;;
18806;SDS011;9531;52.030;4.380;2023-02-08T11:35:55;10.50;;;7.38;;
18806;SDS011;9531;52.030;4.380;2023-02-08T11:38:31;13.73;;;8.77;;
18806;SDS011;9531;52.030;4.380;2023-02-08T11:41:01;9.88;;;6.82;;
18806;SDS011;9531;52.030;4.380;2023-02-08T11:43:31;10.98;;;7.65;;
18806;SDS011;9531;52.030;4.380;2023-02-08T11:46:00;12.68;;;8.02;;
18806;SDS011;9531;52.030;4.380;2023-02-08T11:48:35;11.88;;;7.93;;
18806;SDS011;9531;52.030;4.380;2023-02-08T11:51:10;12.18;;;8.70;;
18806;SDS011;9531;52.030;4.380;2023-02-08T11:53:46;11.18;;;7.72;;
18806;SDS011;9531;52.030;4.380;2023-02-08T11:56:16;9.60;;;7.70;;
18806;SDS011;9531;52.030;4.380;2023-02-08T11:58:54;10.73;;;6.75;;
18806;SDS011;9531;52.030;4.380;2023-02-08T12:01:29;10.10;;;7.10;;
18806;SDS011;9531;52.030;4.380;2023-02-08T12:03:59;10.57;;;7.53;;
18806;SDS011;9531;52.030;4.380;2023-02-08T12:09:28;9.82;;;6.95;;
18806;SDS011;9531;52.030;4.380;2023-02-08T12:12:19;9.23;;;7.07;;
18806;SDS011;9531;52.030;4.380;2023-02-08T12:20:12;10.75;;;6.65;;
18806;SDS011;9531;52.030;4.380;2023-02-08T12:22:52;8.18;;;6.32;;
18806;SDS011;9531;52.030;4.380;2023-02-08T12:25:28;9.65;;;6.75;;
18806;SDS011;9531;52.030;4.380;2023-02-08T12:28:02;12.32;;;6.72;;
18806;SDS011;9531;52.030;4.380;2023-02-08T12:30:35;10.02;;;6.50;;
18806;SDS011;9531;52.030;4.380;2023-02-08T12:33:21;8.23;;;6.50;;
18806;SDS011;9531;52.030;4.380;2023-02-08T12:36:04;9.60;;;7.18;;
18806;SDS011;9531;52.030;4.380;2023-02-08T12:38:50;10.07;;;6.97;;
18806;SDS011;9531;52.030;4.380;2023-02-08T12:41:53;9.60;;;7.10;;
18806;SDS011;9531;52.030;4.380;2023-02-08T12:44:35;8.63;;;6.80;;
18806;SDS011;9531;52.030;4.380;2023-02-08T12:47:16;8.10;;;6.35;;
18806;SDS011;9531;52.030;4.380;2023-02-08T12:49:59;10.80;;;6.75;;
18806;SDS011;9531;52.030;4.380;2023-02-08T12:52:36;10.70;;;7.70;;
18806;SDS011;9531;52.030;4.380;2023-02-08T12:55:12;12.55;;;7.30;;
18806;SDS011;9531;52.030;4.380;2023-02-08T12:57:44;10.02;;;6.35;;
18806;SDS011;9531;52.030;4.380;2023-02-08T13:00:17;11.63;;;6.78;;
18806;SDS011;9531;52.030;4.380;2023-02-08T13:02:48;11.70;;;6.53;;
18806;SDS011;9531;52.030;4.380;2023-02-08T13:05:22;9.25;;;6.68;;
18806;SDS011;9531;52.030;4.380;2023-02-08T13:07:56;9.20;;;5.78;;
18806;SDS011;9531;52.030;4.380;2023-02-08T13:10:28;9.80;;;6.13;;
18806;SDS011;9531;52.030;4.380;2023-02-08T13:13:00;9.05;;;6.57;;
18806;SDS011;9531;52.030;4.380;2023-02-08T13:15:43;6.75;;;5.72;;
18806;SDS011;9531;52.030;4.380;2023-02-08T13:18:14;7.88;;;6.22;;
18806;SDS011;9531;52.030;4.380;2023-02-08T13:20:45;10.20;;;6.20;;
18806;SDS011;9531;52.030;4.380;2023-02-08T13:23:20;8.68;;;5.82;;
18806;SDS011;9531;52.030;4.380;2023-02-08T13:25:59;10.90;;;6.32;;
18806;SDS011;9531;52.030;4.380;2023-02-08T13:28:29;10.60;;;6.00;;
18806;SDS011;9531;52.030;4.380;2023-02-08T13:30:59;10.45;;;6.43;;
18806;SDS011;9531;52.030;4.380;2023-02-08T13:33:30;10.93;;;6.22;;
18806;SDS011;9531;52.030;4.380;2023-02-08T13:38:46;10.40;;;6.47;;
18806;SDS011;9531;52.030;4.380;2023-02-08T13:41:21;7.68;;;6.28;;
18806;SDS011;9531;52.030;4.380;2023-02-08T13:43:50;8.30;;;6.43;;
18806;SDS011;9531;52.030;4.380;2023-02-08T13:48:52;8.65;;;6.35;;
18806;SDS011;9531;52.030;4.380;2023-02-08T13:54:18;8.30;;;6.45;;
18806;SDS011;9531;52.030;4.380;2023-02-08T13:56:46;9.35;;;6.60;;
18806;SDS011;9531;52.030;4.380;2023-02-08T13:59:24;10.50;;;6.85;;
18806;SDS011;9531;52.030;4.380;2023-02-08T14:02:18;9.27;;;6.55;;
18806;SDS011;9531;52.030;4.380;2023-02-08T14:04:51;10.10;;;7.50;;
18806;SDS011;9531;52.030;4.380;2023-02-08T14:07:37;11.48;;;7.22;;
18806;SDS011;9531;52.030;4.380;2023-02-08T14:10:21;9.32;;;6.90;;
18806;SDS011;9531;52.030;4.380;2023-02-08T14:12:57;8.27;;;6.57;;
18806;SDS011;9531;52.030;4.380;2023-02-08T14:18:02;10.65;;;7.63;;
18806;SDS011;9531;52.030;4.380;2023-02-08T14:20:32;10.55;;;7.85;;
18806;SDS011;9531;52.030;4.380;2023-02-08T14:23:04;9.20;;;6.63;;
18806;SDS011;9531;52.030;4.380;2023-02-08T14:25:52;9.07;;;6.13;;
18806;SDS011;9531;52.030;4.380;2023-02-08T14:28:22;12.02;;;7.45;;
18806;SDS011;9531;52.030;4.380;2023-02-08T14:31:01;9.73;;;7.35;;
18806;SDS011;9531;52.030;4.380;2023-02-08T14:33:33;9.90;;;6.32;;
18806;SDS011;9531;52.030;4.380;2023-02-08T14:36:03;12.40;;;7.68;;
18806;SDS011;9531;52.030;4.380;2023-02-08T14:41:49;12.13;;;7.35;;
18806;SDS011;9531;52.030;4.380;2023-02-08T14:50:39;10.65;;;6.95;;
18806;SDS011;9531;52.030;4.380;2023-02-08T14:53:15;10.18;;;7.15;;
18806;SDS011;9531;52.030;4.380;2023-02-08T14:55:50;14.07;;;6.88;;
18806;SDS011;9531;52.030;4.380;2023-02-08T14:58:24;11.32;;;7.60;;
18806;SDS011;9531;52.030;4.380;2023-02-08T15:00:59;12.02;;;7.25;;
18806;SDS011;9531;52.030;4.380;2023-02-08T15:03:29;9.80;;;6.82;;
18806;SDS011;9531;52.030;4.380;2023-02-08T15:09:04;10.05;;;6.60;;
18806;SDS011;9531;52.030;4.380;2023-02-08T15:11:40;10.55;;;7.45;;
18806;SDS011;9531;52.030;4.380;2023-02-08T15:14:15;10.73;;;7.00;;
18806;SDS011;9531;52.030;4.380;2023-02-08T15:16:50;11.60;;;7.60;;
18806;SDS011;9531;52.030;4.380;2023-02-08T15:19:20;9.50;;;7.07;;
18806;SDS011;9531;52.030;4.380;2023-02-08T15:21:52;12.27;;;7.18;;
18806;SDS011;9531;52.030;4.380;2023-02-08T15:24:20;10.70;;;7.25;;
18806;SDS011;9531;52.030;4.380;2023-02-08T15:26:54;13.18;;;6.30;;
18806;SDS011;9531;52.030;4.380;2023-02-08T15:29:26;9.95;;;6.32;;
18806;SDS011;9531;52.030;4.380;2023-02-08T15:31:54;8.73;;;6.30;;
18806;SDS011;9531;52.030;4.380;2023-02-08T15:34:22;10.57;;;6.25;;
18806;SDS011;9531;52.030;4.380;2023-02-08T15:36:51;11.13;;;6.72;;
18806;SDS011;9531;52.030;4.380;2023-02-08T15:39:26;11.32;;;7.43;;
18806;SDS011;9531;52.030;4.380;2023-02-08T15:41:59;9.27;;;6.80;;
18806;SDS011;9531;52.030;4.380;2023-02-08T15:44:28;10.98;;;6.50;;
18806;SDS011;9531;52.030;4.380;2023-02-08T15:46:58;9.82;;;5.63;;
18806;SDS011;9531;52.030;4.380;2023-02-08T15:49:28;8.63;;;6.15;;
18806;SDS011;9531;52.030;4.380;2023-02-08T15:51:58;8.48;;;5.85;;
18806;SDS011;9531;52.030;4.380;2023-02-08T15:54:26;8.98;;;5.85;;